sensor_id;sensor_type;location;lat;lon;timestamp;temperature;humidity
31133;DHT22;17779;50.942;4.026;2024-01-27T00:01:55;3.70;99.90
31133;DHT22;17779;50.942;4.026;2024-01-27T00:04:21;3.60;99.90
31133;DHT22;17779;50.942;4.026;2024-01-27T00:06:47;3.70;99.90
31133;DHT22;17779;50.942;4.026;2024-01-27T00:09:14;3.70;99.90
31133;DHT22;17779;50.942;4.026;2024-01-27T00:11:39;3.80;99.90
31133;DHT22;17779;50.942;4.026;2024-01-27T00:14:06;3.90;99.90
31133;DHT22;17779;50.942;4.026;2024-01-27T00:16:33;4.00;99.90
31133;DHT22;17779;50.942;4.026;2024-01-27T00:19:02;3.80;99.90
31133;DHT22;17779;50.942;4.026;2024-01-27T00:21:28;3.90;99.90
31133;DHT22;17779;50.942;4.026;2024-01-27T00:23:54;3.80;99.90
31133;DHT22;17779;50.942;4.026;2024-01-27T00:26:28;3.70;99.90
31133;DHT22;17779;50.942;4.026;2024-01-27T00:28:54;3.50;99.90
31133;DHT22;17779;50.942;4.026;2024-01-27T00:33:48;3.30;99.90
31133;DHT22;17779;50.942;4.026;2024-01-27T00:36:16;3.30;99.90
31133;DHT22;17779;50.942;4.026;2024-01-27T00:38:42;3.40;99.90
31133;DHT22;17779;50.942;4.026;2024-01-27T00:41:08;3.50;99.90
31133;DHT22;17779;50.942;4.026;2024-01-27T00:43:39;3.50;99.90
31133;DHT22;17779;50.942;4.026;2024-01-27T00:46:05;3.30;99.90
31133;DHT22;17779;50.942;4.026;2024-01-27T00:48:37;3.30;99.90
31133;DHT22;17779;50.942;4.026;2024-01-27T00:51:05;3.20;99.90
31133;DHT22;17779;50.942;4.026;2024-01-27T00:53:31;3.10;99.90
31133;DHT22;17779;50.942;4.026;2024-01-27T00:55:58;3.00;99.90
31133;DHT22;17779;50.942;4.026;2024-01-27T00:58:24;3.00;99.90
31133;DHT22;17779;50.942;4.026;2024-01-27T01:00:49;3.00;99.90
31133;DHT22;17779;50.942;4.026;2024-01-27T01:03:15;3.10;99.90
31133;DHT22;17779;50.942;4.026;2024-01-27T01:05:42;3.20;99.90
31133;DHT22;17779;50.942;4.026;2024-01-27T01:08:08;3.30;99.90
31133;DHT22;17779;50.942;4.026;2024-01-27T01:10:36;3.30;99.90
31133;DHT22;17779;50.942;4.026;2024-01-27T01:13:04;3.20;99.90
31133;DHT22;17779;50.942;4.026;2024-01-27T01:15:32;3.00;99.90
31133;DHT22;17779;50.942;4.026;2024-01-27T01:20:27;3.00;99.90
31133;DHT22;17779;50.942;4.026;2024-01-27T01:22:53;3.30;99.90
31133;DHT22;17779;50.942;4.026;2024-01-27T01:25:20;3.40;99.90
31133;DHT22;17779;50.942;4.026;2024-01-27T01:27:46;3.20;99.90
31133;DHT22;17779;50.942;4.026;2024-01-27T01:30:16;3.20;99.90
31133;DHT22;17779;50.942;4.026;2024-01-27T01:32:43;3.30;99.90
31133;DHT22;17779;50.942;4.026;2024-01-27T01:35:10;3.30;99.90
31133;DHT22;17779;50.942;4.026;2024-01-27T01:37:38;3.20;99.90
31133;DHT22;17779;50.942;4.026;2024-01-27T01:40:05;3.20;99.90
31133;DHT22;17779;50.942;4.026;2024-01-27T01:42:32;3.30;99.90
31133;DHT22;17779;50.942;4.026;2024-01-27T01:45:00;3.20;99.90
31133;DHT22;17779;50.942;4.026;2024-01-27T01:47:27;3.00;99.90
31133;DHT22;17779;50.942;4.026;2024-01-27T01:49:54;2.90;99.90
31133;DHT22;17779;50.942;4.026;2024-01-27T01:52:20;2.90;99.90
31133;DHT22;17779;50.942;4.026;2024-01-27T01:54:47;2.90;99.90
31133;DHT22;17779;50.942;4.026;2024-01-27T01:57:13;3.00;99.90
31133;DHT22;17779;50.942;4.026;2024-01-27T01:59:39;3.00;99.90
31133;DHT22;17779;50.942;4.026;2024-01-27T02:02:11;3.00;99.90
31133;DHT22;17779;50.942;4.026;2024-01-27T02:04:42;3.10;99.90
31133;DHT22;17779;50.942;4.026;2024-01-27T02:09:36;2.80;99.90
31133;DHT22;17779;50.942;4.026;2024-01-27T02:12:02;2.80;99.90
31133;DHT22;17779;50.942;4.026;2024-01-27T02:14:28;2.90;99.90
31133;DHT22;17779;50.942;4.026;2024-01-27T02:16:53;2.90;99.90
31133;DHT22;17779;50.942;4.026;2024-01-27T02:19:21;2.80;99.90
31133;DHT22;17779;50.942;4.026;2024-01-27T02:21:47;2.70;99.90
31133;DHT22;17779;50.942;4.026;2024-01-27T02:24:13;2.60;99.90
31133;DHT22;17779;50.942;4.026;2024-01-27T02:26:40;2.70;99.90
31133;DHT22;17779;50.942;4.026;2024-01-27T02:29:07;2.70;99.90
31133;DHT22;17779;50.942;4.026;2024-01-27T02:31:33;2.70;99.90
31133;DHT22;17779;50.942;4.026;2024-01-27T02:33:59;2.80;99.90
31133;DHT22;17779;50.942;4.026;2024-01-27T02:36:25;2.80;99.90
31133;DHT22;17779;50.942;4.026;2024-01-27T02:38:52;2.70;99.90
31133;DHT22;17779;50.942;4.026;2024-01-27T02:41:20;2.70;99.90
31133;DHT22;17779;50.942;4.026;2024-01-27T02:43:45;2.70;99.90
31133;DHT22;17779;50.942;4.026;2024-01-27T02:46:13;2.70;99.90
31133;DHT22;17779;50.942;4.026;2024-01-27T02:48:41;2.60;99.90
31133;DHT22;17779;50.942;4.026;2024-01-27T02:51:08;2.80;99.90
31133;DHT22;17779;50.942;4.026;2024-01-27T02:53:33;2.70;99.90
31133;DHT22;17779;50.942;4.026;2024-01-27T02:55:59;2.70;99.90
31133;DHT22;17779;50.942;4.026;2024-01-27T02:58:27;2.60;99.90
31133;DHT22;17779;50.942;4.026;2024-01-27T03:00:53;2.50;99.90
31133;DHT22;17779;50.942;4.026;2024-01-27T03:03:22;2.60;99.90
31133;DHT22;17779;50.942;4.026;2024-01-27T03:05:51;2.50;99.90
31133;DHT22;17779;50.942;4.026;2024-01-27T03:08:17;2.60;99.90
31133;DHT22;17779;50.942;4.026;2024-01-27T03:10:44;2.60;99.90
31133;DHT22;17779;50.942;4.026;2024-01-27T03:13:12;2.50;99.90
31133;DHT22;17779;50.942;4.026;2024-01-27T03:15:39;2.50;99.90
31133;DHT22;17779;50.942;4.026;2024-01-27T03:18:09;2.40;99.90
31133;DHT22;17779;50.942;4.026;2024-01-27T03:20:35;2.40;99.90
31133;DHT22;17779;50.942;4.026;2024-01-27T03:23:01;2.40;99.90
31133;DHT22;17779;50.942;4.026;2024-01-27T03:25:28;2.30;99.90
31133;DHT22;17779;50.942;4.026;2024-01-27T03:27:56;2.40;99.90
31133;DHT22;17779;50.942;4.026;2024-01-27T03:30:22;2.40;99.90
31133;DHT22;17779;50.942;4.026;2024-01-27T03:32:47;2.50;99.90
31133;DHT22;17779;50.942;4.026;2024-01-27T03:35:16;2.40;99.90
31133;DHT22;17779;50.942;4.026;2024-01-27T03:37:45;2.40;99.90
31133;DHT22;17779;50.942;4.026;2024-01-27T03:40:11;2.40;99.90
31133;DHT22;17779;50.942;4.026;2024-01-27T03:42:38;2.30;99.90
31133;DHT22;17779;50.942;4.026;2024-01-27T03:45:03;2.30;99.90
31133;DHT22;17779;50.942;4.026;2024-01-27T03:47:31;2.30;99.90
31133;DHT22;17779;50.942;4.026;2024-01-27T03:49:59;2.30;99.90
31133;DHT22;17779;50.942;4.026;2024-01-27T03:52:24;2.30;99.90
31133;DHT22;17779;50.942;4.026;2024-01-27T03:54:50;2.30;99.90
31133;DHT22;17779;50.942;4.026;2024-01-27T03:57:17;2.30;99.90
31133;DHT22;17779;50.942;4.026;2024-01-27T03:59:44;2.40;99.90
31133;DHT22;17779;50.942;4.026;2024-01-27T04:02:12;2.30;99.90
31133;DHT22;17779;50.942;4.026;2024-01-27T04:04:37;2.40;99.90
31133;DHT22;17779;50.942;4.026;2024-01-27T04:07:03;2.30;99.90
31133;DHT22;17779;50.942;4.026;2024-01-27T04:09:29;2.30;99.90
31133;DHT22;17779;50.942;4.026;2024-01-27T04:11:56;2.40;99.90
31133;DHT22;17779;50.942;4.026;2024-01-27T04:14:21;2.30;99.90
31133;DHT22;17779;50.942;4.026;2024-01-27T04:16:47;2.30;99.90
31133;DHT22;17779;50.942;4.026;2024-01-27T04:19:13;2.40;99.90
31133;DHT22;17779;50.942;4.026;2024-01-27T04:21:38;2.40;99.90
31133;DHT22;17779;50.942;4.026;2024-01-27T04:24:04;2.40;99.90
31133;DHT22;17779;50.942;4.026;2024-01-27T04:26:30;2.30;99.90
31133;DHT22;17779;50.942;4.026;2024-01-27T04:28:55;2.40;99.90
31133;DHT22;17779;50.942;4.026;2024-01-27T04:31:21;2.40;99.90
31133;DHT22;17779;50.942;4.026;2024-01-27T04:33:47;2.40;99.90
31133;DHT22;17779;50.942;4.026;2024-01-27T04:36:12;2.30;99.90
31133;DHT22;17779;50.942;4.026;2024-01-27T04:38:38;2.30;99.90
31133;DHT22;17779;50.942;4.026;2024-01-27T04:41:05;2.20;99.90
31133;DHT22;17779;50.942;4.026;2024-01-27T04:43:31;2.20;99.90
31133;DHT22;17779;50.942;4.026;2024-01-27T04:48:27;2.20;99.90
31133;DHT22;17779;50.942;4.026;2024-01-27T04:50:54;2.30;99.90
31133;DHT22;17779;50.942;4.026;2024-01-27T04:53:23;2.30;99.90
31133;DHT22;17779;50.942;4.026;2024-01-27T04:55:51;2.30;99.90
31133;DHT22;17779;50.942;4.026;2024-01-27T04:58:18;2.30;99.90
31133;DHT22;17779;50.942;4.026;2024-01-27T05:00:45;2.20;99.90
31133;DHT22;17779;50.942;4.026;2024-01-27T05:03:11;2.10;99.90
31133;DHT22;17779;50.942;4.026;2024-01-27T05:05:42;2.10;99.90
31133;DHT22;17779;50.942;4.026;2024-01-27T05:08:08;2.10;99.90
31133;DHT22;17779;50.942;4.026;2024-01-27T05:10:35;2.20;99.90
31133;DHT22;17779;50.942;4.026;2024-01-27T05:15:29;2.30;99.90
31133;DHT22;17779;50.942;4.026;2024-01-27T05:17:55;2.30;99.90
31133;DHT22;17779;50.942;4.026;2024-01-27T05:20:20;2.20;99.90
31133;DHT22;17779;50.942;4.026;2024-01-27T05:22:48;2.20;99.90
31133;DHT22;17779;50.942;4.026;2024-01-27T05:25:14;2.20;99.90
31133;DHT22;17779;50.942;4.026;2024-01-27T05:27:41;2.20;99.90
31133;DHT22;17779;50.942;4.026;2024-01-27T05:30:07;2.20;99.90
31133;DHT22;17779;50.942;4.026;2024-01-27T05:32:34;2.10;99.90
31133;DHT22;17779;50.942;4.026;2024-01-27T05:35:00;2.10;99.90
31133;DHT22;17779;50.942;4.026;2024-01-27T05:37:27;2.10;99.90
31133;DHT22;17779;50.942;4.026;2024-01-27T05:39:54;2.00;99.90
31133;DHT22;17779;50.942;4.026;2024-01-27T05:42:19;2.00;99.90
31133;DHT22;17779;50.942;4.026;2024-01-27T05:44:46;2.00;99.90
31133;DHT22;17779;50.942;4.026;2024-01-27T05:47:19;2.00;99.90
31133;DHT22;17779;50.942;4.026;2024-01-27T05:52:13;1.80;99.90
31133;DHT22;17779;50.942;4.026;2024-01-27T05:54:42;1.90;99.90
31133;DHT22;17779;50.942;4.026;2024-01-27T05:57:07;2.00;99.90
31133;DHT22;17779;50.942;4.026;2024-01-27T05:59:34;2.00;99.90
31133;DHT22;17779;50.942;4.026;2024-01-27T06:04:31;1.90;99.90
31133;DHT22;17779;50.942;4.026;2024-01-27T06:06:59;1.90;99.90
31133;DHT22;17779;50.942;4.026;2024-01-27T06:09:26;1.90;99.90
31133;DHT22;17779;50.942;4.026;2024-01-27T06:11:52;2.00;99.90
31133;DHT22;17779;50.942;4.026;2024-01-27T06:14:18;1.90;99.90
31133;DHT22;17779;50.942;4.026;2024-01-27T06:16:44;1.90;99.90
31133;DHT22;17779;50.942;4.026;2024-01-27T06:19:11;1.90;99.90
31133;DHT22;17779;50.942;4.026;2024-01-27T06:21:37;1.90;99.90
31133;DHT22;17779;50.942;4.026;2024-01-27T06:24:02;1.90;99.90
31133;DHT22;17779;50.942;4.026;2024-01-27T06:26:28;2.00;99.90
31133;DHT22;17779;50.942;4.026;2024-01-27T06:28:55;2.10;99.90
31133;DHT22;17779;50.942;4.026;2024-01-27T06:31:21;2.10;99.90
31133;DHT22;17779;50.942;4.026;2024-01-27T06:33:47;2.10;99.90
31133;DHT22;17779;50.942;4.026;2024-01-27T06:36:13;2.10;99.90
31133;DHT22;17779;50.942;4.026;2024-01-27T06:38:38;2.00;99.90
31133;DHT22;17779;50.942;4.026;2024-01-27T06:41:04;1.90;99.90
31133;DHT22;17779;50.942;4.026;2024-01-27T06:43:30;1.90;99.90
31133;DHT22;17779;50.942;4.026;2024-01-27T06:45:55;1.90;99.90
31133;DHT22;17779;50.942;4.026;2024-01-27T06:48:26;1.90;99.90
31133;DHT22;17779;50.942;4.026;2024-01-27T06:50:52;1.90;99.90
31133;DHT22;17779;50.942;4.026;2024-01-27T06:53:18;1.90;99.90
31133;DHT22;17779;50.942;4.026;2024-01-27T06:55:44;1.90;99.90
31133;DHT22;17779;50.942;4.026;2024-01-27T06:58:10;1.90;99.90
31133;DHT22;17779;50.942;4.026;2024-01-27T07:00:37;1.80;99.90
31133;DHT22;17779;50.942;4.026;2024-01-27T07:03:03;1.80;99.90
31133;DHT22;17779;50.942;4.026;2024-01-27T07:05:29;1.80;99.90
31133;DHT22;17779;50.942;4.026;2024-01-27T07:07:55;1.80;99.90
31133;DHT22;17779;50.942;4.026;2024-01-27T07:10:20;1.80;99.90
31133;DHT22;17779;50.942;4.026;2024-01-27T07:12:46;1.80;99.90
31133;DHT22;17779;50.942;4.026;2024-01-27T07:15:11;1.90;99.90
31133;DHT22;17779;50.942;4.026;2024-01-27T07:17:38;1.80;99.90
31133;DHT22;17779;50.942;4.026;2024-01-27T07:20:05;1.80;99.90
31133;DHT22;17779;50.942;4.026;2024-01-27T07:24:59;1.80;99.90
31133;DHT22;17779;50.942;4.026;2024-01-27T07:27:27;1.90;99.90
31133;DHT22;17779;50.942;4.026;2024-01-27T07:29:52;1.80;99.90
31133;DHT22;17779;50.942;4.026;2024-01-27T07:32:19;1.80;99.90
31133;DHT22;17779;50.942;4.026;2024-01-27T07:34:46;1.70;99.90
31133;DHT22;17779;50.942;4.026;2024-01-27T07:39:41;1.80;99.90
31133;DHT22;17779;50.942;4.026;2024-01-27T07:42:08;1.90;99.90
31133;DHT22;17779;50.942;4.026;2024-01-27T07:47:04;1.90;99.90
31133;DHT22;17779;50.942;4.026;2024-01-27T07:49:29;1.90;99.90
31133;DHT22;17779;50.942;4.026;2024-01-27T07:51:55;1.90;99.90
31133;DHT22;17779;50.942;4.026;2024-01-27T07:54:20;2.00;99.90
31133;DHT22;17779;50.942;4.026;2024-01-27T07:56:47;2.00;99.90
31133;DHT22;17779;50.942;4.026;2024-01-27T07:59:14;2.00;99.90
31133;DHT22;17779;50.942;4.026;2024-01-27T08:01:42;2.10;99.90
31133;DHT22;17779;50.942;4.026;2024-01-27T08:04:10;2.00;99.90
31133;DHT22;17779;50.942;4.026;2024-01-27T08:06:45;2.00;99.90
31133;DHT22;17779;50.942;4.026;2024-01-27T08:09:11;2.10;99.90
31133;DHT22;17779;50.942;4.026;2024-01-27T08:11:38;2.10;99.90
31133;DHT22;17779;50.942;4.026;2024-01-27T08:14:03;2.10;99.90
31133;DHT22;17779;50.942;4.026;2024-01-27T08:16:32;2.20;99.90
31133;DHT22;17779;50.942;4.026;2024-01-27T08:18:58;2.20;99.90
31133;DHT22;17779;50.942;4.026;2024-01-27T08:21:23;2.30;99.90
31133;DHT22;17779;50.942;4.026;2024-01-27T08:23:49;2.40;99.90
31133;DHT22;17779;50.942;4.026;2024-01-27T08:26:15;2.50;99.90
31133;DHT22;17779;50.942;4.026;2024-01-27T08:28:41;2.60;99.90
31133;DHT22;17779;50.942;4.026;2024-01-27T08:31:08;2.60;99.90
31133;DHT22;17779;50.942;4.026;2024-01-27T08:33:33;2.70;99.90
31133;DHT22;17779;50.942;4.026;2024-01-27T08:36:00;3.10;99.90
31133;DHT22;17779;50.942;4.026;2024-01-27T08:38:27;3.70;99.90
31133;DHT22;17779;50.942;4.026;2024-01-27T08:40:53;4.70;99.90
31133;DHT22;17779;50.942;4.026;2024-01-27T08:43:19;5.10;99.90
31133;DHT22;17779;50.942;4.026;2024-01-27T08:45:45;5.50;99.90
31133;DHT22;17779;50.942;4.026;2024-01-27T08:48:11;6.50;99.90
31133;DHT22;17779;50.942;4.026;2024-01-27T08:50:38;7.10;99.90
31133;DHT22;17779;50.942;4.026;2024-01-27T08:53:05;7.10;99.90
31133;DHT22;17779;50.942;4.026;2024-01-27T08:55:31;7.70;99.90
31133;DHT22;17779;50.942;4.026;2024-01-27T08:57:57;7.80;99.90
31133;DHT22;17779;50.942;4.026;2024-01-27T09:00:22;7.60;99.90
31133;DHT22;17779;50.942;4.026;2024-01-27T09:02:48;7.10;99.90
31133;DHT22;17779;50.942;4.026;2024-01-27T09:05:14;7.00;99.90
31133;DHT22;17779;50.942;4.026;2024-01-27T09:07:41;6.90;99.90
31133;DHT22;17779;50.942;4.026;2024-01-27T09:10:06;7.40;99.90
31133;DHT22;17779;50.942;4.026;2024-01-27T09:12:36;7.20;99.90
31133;DHT22;17779;50.942;4.026;2024-01-27T09:15:02;7.10;99.90
31133;DHT22;17779;50.942;4.026;2024-01-27T09:17:28;7.70;99.90
31133;DHT22;17779;50.942;4.026;2024-01-27T09:19:56;7.30;99.90
31133;DHT22;17779;50.942;4.026;2024-01-27T09:22:23;7.20;99.90
31133;DHT22;17779;50.942;4.026;2024-01-27T09:24:49;7.50;99.90
31133;DHT22;17779;50.942;4.026;2024-01-27T09:27:16;7.90;99.90
31133;DHT22;17779;50.942;4.026;2024-01-27T09:29:43;8.30;99.90
31133;DHT22;17779;50.942;4.026;2024-01-27T09:32:09;8.60;99.90
31133;DHT22;17779;50.942;4.026;2024-01-27T09:34:34;9.60;99.90
31133;DHT22;17779;50.942;4.026;2024-01-27T09:37:00;9.20;99.90
31133;DHT22;17779;50.942;4.026;2024-01-27T09:41:55;10.20;99.90
31133;DHT22;17779;50.942;4.026;2024-01-27T09:44:21;10.80;99.90
31133;DHT22;17779;50.942;4.026;2024-01-27T09:46:49;11.50;99.90
31133;DHT22;17779;50.942;4.026;2024-01-27T09:49:16;12.70;99.90
31133;DHT22;17779;50.942;4.026;2024-01-27T09:51:42;12.80;99.90
31133;DHT22;17779;50.942;4.026;2024-01-27T09:54:07;13.80;99.90
31133;DHT22;17779;50.942;4.026;2024-01-27T09:56:35;13.40;99.90
31133;DHT22;17779;50.942;4.026;2024-01-27T09:59:01;14.40;99.90
31133;DHT22;17779;50.942;4.026;2024-01-27T10:01:27;14.30;99.90
31133;DHT22;17779;50.942;4.026;2024-01-27T10:03:54;13.40;99.90
31133;DHT22;17779;50.942;4.026;2024-01-27T10:06:20;13.70;99.90
31133;DHT22;17779;50.942;4.026;2024-01-27T10:08:56;12.90;99.90
31133;DHT22;17779;50.942;4.026;2024-01-27T10:11:23;12.00;99.90
31133;DHT22;17779;50.942;4.026;2024-01-27T10:13:55;12.30;99.90
31133;DHT22;17779;50.942;4.026;2024-01-27T10:16:28;11.60;99.90
31133;DHT22;17779;50.942;4.026;2024-01-27T10:19:04;10.60;99.90
31133;DHT22;17779;50.942;4.026;2024-01-27T10:21:30;10.00;99.90
31133;DHT22;17779;50.942;4.026;2024-01-27T10:23:55;10.10;99.90
31133;DHT22;17779;50.942;4.026;2024-01-27T10:26:21;9.50;99.90
31133;DHT22;17779;50.942;4.026;2024-01-27T10:28:56;9.10;99.90
31133;DHT22;17779;50.942;4.026;2024-01-27T10:31:28;8.90;99.90
31133;DHT22;17779;50.942;4.026;2024-01-27T10:33:55;10.00;99.90
31133;DHT22;17779;50.942;4.026;2024-01-27T10:38:53;11.70;99.90
31133;DHT22;17779;50.942;4.026;2024-01-27T10:41:21;11.40;99.90
31133;DHT22;17779;50.942;4.026;2024-01-27T10:43:50;11.30;99.90
31133;DHT22;17779;50.942;4.026;2024-01-27T10:46:18;11.50;99.90
31133;DHT22;17779;50.942;4.026;2024-01-27T10:48:44;11.60;99.90
31133;DHT22;17779;50.942;4.026;2024-01-27T10:51:13;11.70;99.90
31133;DHT22;17779;50.942;4.026;2024-01-27T10:53:43;11.60;99.90
31133;DHT22;17779;50.942;4.026;2024-01-27T10:56:10;11.90;99.90
31133;DHT22;17779;50.942;4.026;2024-01-27T10:58:36;12.30;99.90
31133;DHT22;17779;50.942;4.026;2024-01-27T11:01:13;11.40;99.90
31133;DHT22;17779;50.942;4.026;2024-01-27T11:03:39;11.80;99.90
31133;DHT22;17779;50.942;4.026;2024-01-27T11:06:05;11.80;99.90
31133;DHT22;17779;50.942;4.026;2024-01-27T11:08:31;11.70;99.90
31133;DHT22;17779;50.942;4.026;2024-01-27T11:10:58;11.50;99.90
31133;DHT22;17779;50.942;4.026;2024-01-27T11:13:24;11.60;99.90
31133;DHT22;17779;50.942;4.026;2024-01-27T11:15:53;12.10;99.90
31133;DHT22;17779;50.942;4.026;2024-01-27T11:18:19;11.50;99.90
31133;DHT22;17779;50.942;4.026;2024-01-27T11:20:45;11.50;99.90
31133;DHT22;17779;50.942;4.026;2024-01-27T11:23:14;11.00;99.90
31133;DHT22;17779;50.942;4.026;2024-01-27T11:25:41;11.20;99.90
31133;DHT22;17779;50.942;4.026;2024-01-27T11:28:11;11.10;99.90
31133;DHT22;17779;50.942;4.026;2024-01-27T11:30:39;11.20;99.90
31133;DHT22;17779;50.942;4.026;2024-01-27T11:33:05;11.30;99.90
31133;DHT22;17779;50.942;4.026;2024-01-27T11:35:31;10.90;99.90
31133;DHT22;17779;50.942;4.026;2024-01-27T11:37:57;11.10;99.90
31133;DHT22;17779;50.942;4.026;2024-01-27T11:40:23;10.80;99.90
31133;DHT22;17779;50.942;4.026;2024-01-27T11:42:58;10.70;99.90
31133;DHT22;17779;50.942;4.026;2024-01-27T11:45:24;11.10;99.90
31133;DHT22;17779;50.942;4.026;2024-01-27T11:47:50;11.40;99.90
31133;DHT22;17779;50.942;4.026;2024-01-27T11:50:17;11.50;99.90
31133;DHT22;17779;50.942;4.026;2024-01-27T11:52:43;11.50;99.90
31133;DHT22;17779;50.942;4.026;2024-01-27T11:55:09;11.40;99.90
31133;DHT22;17779;50.942;4.026;2024-01-27T11:57:34;11.70;99.90
31133;DHT22;17779;50.942;4.026;2024-01-27T12:00:00;11.50;99.90
31133;DHT22;17779;50.942;4.026;2024-01-27T12:02:26;11.30;99.90
31133;DHT22;17779;50.942;4.026;2024-01-27T12:04:51;11.60;99.90
31133;DHT22;17779;50.942;4.026;2024-01-27T12:07:17;11.70;99.90
31133;DHT22;17779;50.942;4.026;2024-01-27T12:09:49;11.70;99.90
31133;DHT22;17779;50.942;4.026;2024-01-27T12:12:15;12.00;99.90
31133;DHT22;17779;50.942;4.026;2024-01-27T12:14:44;12.40;99.90
31133;DHT22;17779;50.942;4.026;2024-01-27T12:17:10;12.80;99.90
31133;DHT22;17779;50.942;4.026;2024-01-27T12:19:36;13.40;99.90
31133;DHT22;17779;50.942;4.026;2024-01-27T12:22:02;13.40;99.90
31133;DHT22;17779;50.942;4.026;2024-01-27T12:24:28;13.00;99.90
31133;DHT22;17779;50.942;4.026;2024-01-27T12:26:55;13.20;99.90
31133;DHT22;17779;50.942;4.026;2024-01-27T12:29:22;13.20;99.90
31133;DHT22;17779;50.942;4.026;2024-01-27T12:31:48;12.90;99.90
31133;DHT22;17779;50.942;4.026;2024-01-27T12:34:13;12.60;99.90
31133;DHT22;17779;50.942;4.026;2024-01-27T12:36:42;13.30;99.90
31133;DHT22;17779;50.942;4.026;2024-01-27T12:39:09;13.10;99.90
31133;DHT22;17779;50.942;4.026;2024-01-27T12:41:35;12.50;99.90
31133;DHT22;17779;50.942;4.026;2024-01-27T12:44:00;12.40;99.90
31133;DHT22;17779;50.942;4.026;2024-01-27T12:46:27;12.30;99.90
31133;DHT22;17779;50.942;4.026;2024-01-27T12:48:53;12.10;99.90
31133;DHT22;17779;50.942;4.026;2024-01-27T12:51:20;12.30;99.90
31133;DHT22;17779;50.942;4.026;2024-01-27T12:53:46;12.50;99.90
31133;DHT22;17779;50.942;4.026;2024-01-27T12:56:12;12.60;99.90
31133;DHT22;17779;50.942;4.026;2024-01-27T12:58:38;12.60;99.90
31133;DHT22;17779;50.942;4.026;2024-01-27T13:01:05;12.70;99.90
31133;DHT22;17779;50.942;4.026;2024-01-27T13:03:31;13.00;99.90
31133;DHT22;17779;50.942;4.026;2024-01-27T13:05:56;12.60;99.90
31133;DHT22;17779;50.942;4.026;2024-01-27T13:08:22;12.20;99.90
31133;DHT22;17779;50.942;4.026;2024-01-27T13:10:49;11.60;99.90
31133;DHT22;17779;50.942;4.026;2024-01-27T13:13:15;11.30;99.90
31133;DHT22;17779;50.942;4.026;2024-01-27T13:15:41;11.40;99.90
31133;DHT22;17779;50.942;4.026;2024-01-27T13:18:07;11.20;99.90
31133;DHT22;17779;50.942;4.026;2024-01-27T13:20:32;11.30;99.90
31133;DHT22;17779;50.942;4.026;2024-01-27T13:22:59;11.10;99.90
31133;DHT22;17779;50.942;4.026;2024-01-27T13:25:25;11.20;99.90
31133;DHT22;17779;50.942;4.026;2024-01-27T13:27:51;11.20;99.90
31133;DHT22;17779;50.942;4.026;2024-01-27T13:30:17;11.40;99.90
31133;DHT22;17779;50.942;4.026;2024-01-27T13:32:43;11.90;99.90
31133;DHT22;17779;50.942;4.026;2024-01-27T13:35:08;12.70;99.90
31133;DHT22;17779;50.942;4.026;2024-01-27T13:37:34;12.70;99.90
31133;DHT22;17779;50.942;4.026;2024-01-27T13:40:00;12.60;99.90
31133;DHT22;17779;50.942;4.026;2024-01-27T13:42:26;13.00;99.90
31133;DHT22;17779;50.942;4.026;2024-01-27T13:44:52;13.00;99.90
31133;DHT22;17779;50.942;4.026;2024-01-27T13:47:17;13.10;99.90
31133;DHT22;17779;50.942;4.026;2024-01-27T13:49:43;13.10;99.90
31133;DHT22;17779;50.942;4.026;2024-01-27T13:52:09;12.60;99.90
31133;DHT22;17779;50.942;4.026;2024-01-27T13:54:35;12.70;99.90
31133;DHT22;17779;50.942;4.026;2024-01-27T13:57:01;12.70;99.90
31133;DHT22;17779;50.942;4.026;2024-01-27T13:59:33;12.60;99.90
31133;DHT22;17779;50.942;4.026;2024-01-27T14:01:59;12.50;99.90
31133;DHT22;17779;50.942;4.026;2024-01-27T14:04:24;12.50;99.90
31133;DHT22;17779;50.942;4.026;2024-01-27T14:06:53;12.30;99.90
31133;DHT22;17779;50.942;4.026;2024-01-27T14:09:20;12.50;99.90
31133;DHT22;17779;50.942;4.026;2024-01-27T14:11:46;12.30;99.90
31133;DHT22;17779;50.942;4.026;2024-01-27T14:14:12;12.20;99.90
31133;DHT22;17779;50.942;4.026;2024-01-27T14:16:37;11.50;99.90
31133;DHT22;17779;50.942;4.026;2024-01-27T14:19:05;10.80;99.90
31133;DHT22;17779;50.942;4.026;2024-01-27T14:21:31;10.10;99.90
31133;DHT22;17779;50.942;4.026;2024-01-27T14:23:57;9.70;99.90
31133;DHT22;17779;50.942;4.026;2024-01-27T14:26:27;9.40;99.90
31133;DHT22;17779;50.942;4.026;2024-01-27T14:28:53;9.40;99.90
31133;DHT22;17779;50.942;4.026;2024-01-27T14:31:19;9.30;99.90
31133;DHT22;17779;50.942;4.026;2024-01-27T14:33:45;9.30;99.90
31133;DHT22;17779;50.942;4.026;2024-01-27T14:36:10;9.20;99.90
31133;DHT22;17779;50.942;4.026;2024-01-27T14:38:38;9.10;99.90
31133;DHT22;17779;50.942;4.026;2024-01-27T14:41:04;9.10;99.90
31133;DHT22;17779;50.942;4.026;2024-01-27T14:43:30;9.10;99.90
31133;DHT22;17779;50.942;4.026;2024-01-27T14:45:55;9.20;99.90
31133;DHT22;17779;50.942;4.026;2024-01-27T14:48:23;9.20;99.90
31133;DHT22;17779;50.942;4.026;2024-01-27T14:50:49;9.10;99.90
31133;DHT22;17779;50.942;4.026;2024-01-27T14:53:21;8.90;99.90
31133;DHT22;17779;50.942;4.026;2024-01-27T14:55:46;8.70;99.90
31133;DHT22;17779;50.942;4.026;2024-01-27T14:58:13;8.80;99.90
31133;DHT22;17779;50.942;4.026;2024-01-27T15:00:39;8.90;99.90
31133;DHT22;17779;50.942;4.026;2024-01-27T15:03:06;8.90;99.90
31133;DHT22;17779;50.942;4.026;2024-01-27T15:05:31;8.80;99.90
31133;DHT22;17779;50.942;4.026;2024-01-27T15:08:02;8.90;99.90
31133;DHT22;17779;50.942;4.026;2024-01-27T15:10:27;9.10;99.90
31133;DHT22;17779;50.942;4.026;2024-01-27T15:12:53;8.90;99.90
31133;DHT22;17779;50.942;4.026;2024-01-27T15:15:19;8.90;99.90
31133;DHT22;17779;50.942;4.026;2024-01-27T15:17:45;8.70;99.90
31133;DHT22;17779;50.942;4.026;2024-01-27T15:20:10;8.60;99.90
31133;DHT22;17779;50.942;4.026;2024-01-27T15:22:37;8.60;99.90
31133;DHT22;17779;50.942;4.026;2024-01-27T15:25:03;8.60;99.90
31133;DHT22;17779;50.942;4.026;2024-01-27T15:27:28;8.60;99.90
31133;DHT22;17779;50.942;4.026;2024-01-27T15:29:54;8.50;99.90
31133;DHT22;17779;50.942;4.026;2024-01-27T15:32:20;8.50;99.90
31133;DHT22;17779;50.942;4.026;2024-01-27T15:34:49;8.40;99.90
31133;DHT22;17779;50.942;4.026;2024-01-27T15:37:15;8.50;99.90
31133;DHT22;17779;50.942;4.026;2024-01-27T15:39:41;8.50;99.90
31133;DHT22;17779;50.942;4.026;2024-01-27T15:42:08;8.50;99.90
31133;DHT22;17779;50.942;4.026;2024-01-27T15:44:33;8.50;99.90
31133;DHT22;17779;50.942;4.026;2024-01-27T15:46:59;8.50;99.90
31133;DHT22;17779;50.942;4.026;2024-01-27T15:49:25;8.40;99.90
31133;DHT22;17779;50.942;4.026;2024-01-27T15:51:51;8.40;99.90
31133;DHT22;17779;50.942;4.026;2024-01-27T15:54:17;8.20;99.90
31133;DHT22;17779;50.942;4.026;2024-01-27T15:56:43;8.10;99.90
31133;DHT22;17779;50.942;4.026;2024-01-27T15:59:09;8.10;99.90
31133;DHT22;17779;50.942;4.026;2024-01-27T16:01:35;8.00;99.90
31133;DHT22;17779;50.942;4.026;2024-01-27T16:04:00;8.30;99.90
31133;DHT22;17779;50.942;4.026;2024-01-27T16:06:26;8.50;99.90
31133;DHT22;17779;50.942;4.026;2024-01-27T16:08:52;8.50;99.90